KRDR/RDR METAR and TAF weather

Enter ICAO airport designator
Station Type Date Time Source
KRDR METAR 2020/11/28 19:56 UTC NOAA

KRDR 281956Z AUTO 23005KT 10SM FEW210 09/M03 A2972 RMK AO2 SLP079 T00891030 $


Station Type Date Time Source
KRDR Decoded METAR 2020/11/28 19:56 UTC NOAA

Grand Forks Air Force Base, ND, United States (KRDR) 47-58N 097-24W 278M
Nov 28, 2020 - 02:56 PM EST / 2020.11.28 1956 UTC
Wind: from the SW (230 degrees) at 6 MPH (5 KT):0
Visibility: 10 mile(s):0
Sky conditions: mostly clear
Temperature: 48.0 F (8.9 C)
Dew Point: 26.6 F (-3.0 C)
Relative Humidity: 42%
Pressure (altimeter): 29.72 in. Hg (1006 hPa)
ob: KRDR 281956Z AUTO 23005KT 10SM FEW210 09/M03 A2972 RMK AO2 SLP079 T00891030
cycle: 20

Station Type Date Time Source
KRDR TAF 2020/11/26 02:20 UTC NOAA

TAF KRDR 260200Z 2602/2708 19009KT 9999 SCT200 QNH2969INS
BECMG 2607/2608 31006KT 6000 -SN BKN020 620208 QNH2973INS
BECMG 2613/2614 32010G15KT 9999 NSW BKN020 620208 QNH2985INS
BECMG 2620/2621 24009KT 9999 SCT080 QNH2990INS
BECMG 2702/2703 29009KT 9999 SCT050 QNH2995INS TX02/2621Z TNM02/2608Z LAST NO
AMDS AFT 2603 NEXT 3010

Example: see airport list